createdAt,value
2023-01-05T00:00:38.584Z,11.60
2023-01-05T00:01:40.616Z,11.70
2023-01-05T00:02:42.137Z,11.60
2023-01-05T00:03:43.543Z,11.60
2023-01-05T00:04:46.464Z,11.60
2023-01-05T00:05:48.135Z,11.70
2023-01-05T00:06:49.615Z,11.60
2023-01-05T00:07:51.182Z,11.70
2023-01-05T00:08:52.646Z,11.70
2023-01-05T00:09:54.038Z,11.70
2023-01-05T00:11:14.330Z,11.70
2023-01-05T00:12:34.578Z,11.80
2023-01-05T00:13:55.013Z,11.70
2023-01-05T00:15:15.338Z,11.70
2023-01-05T00:16:36.026Z,11.70
2023-01-05T00:18:03.946Z,11.70
2023-01-05T00:19:24.227Z,11.70
2023-01-05T00:20:44.587Z,11.70
2023-01-05T00:22:04.953Z,11.70
2023-01-05T00:23:07.147Z,11.70
2023-01-05T00:24:08.896Z,11.70
2023-01-05T00:25:22.562Z,11.70
2023-01-05T00:26:24.011Z,11.70
2023-01-05T00:27:26.663Z,11.70
2023-01-05T00:28:28.062Z,11.70
2023-01-05T00:29:29.536Z,11.70
2023-01-05T00:30:38.151Z,11.80
2023-01-05T00:31:39.921Z,11.80
2023-01-05T00:32:42.658Z,11.80
2023-01-05T00:33:44.078Z,11.80
2023-01-05T00:34:45.792Z,11.90
2023-01-05T00:35:47.276Z,11.90
2023-01-05T00:36:48.845Z,11.90
2023-01-05T00:37:51.223Z,11.80
2023-01-05T00:38:54.827Z,11.90
2023-01-05T00:39:56.521Z,11.90
2023-01-05T00:40:58.219Z,11.90
2023-01-05T00:41:59.980Z,11.90
2023-01-05T00:43:01.981Z,11.90
2023-01-05T00:44:03.515Z,11.90
2023-01-05T00:45:07.595Z,11.80
2023-01-05T00:46:09.286Z,11.80
2023-01-05T00:47:11.313Z,11.80
2023-01-05T00:48:12.746Z,11.90
2023-01-05T00:49:14.229Z,11.80
2023-01-05T00:50:17.397Z,11.80
2023-01-05T00:51:18.872Z,11.80
2023-01-05T00:52:20.479Z,11.80
2023-01-05T00:53:22.023Z,11.80
2023-01-05T00:54:23.409Z,11.80
2023-01-05T00:55:24.844Z,11.90
2023-01-05T00:56:26.323Z,12.00
2023-01-05T00:57:27.942Z,12.00
2023-01-05T00:58:30.565Z,11.90
2023-01-05T00:59:31.938Z,11.90
2023-01-05T01:00:33.423Z,11.90
2023-01-05T01:01:34.950Z,11.90
2023-01-05T01:02:36.473Z,11.90
2023-01-05T01:03:38.042Z,11.90
2023-01-05T01:04:39.807Z,11.90
2023-01-05T01:05:41.334Z,12.00
2023-01-05T01:06:43.082Z,11.90
2023-01-05T01:07:44.758Z,11.90
2023-01-05T01:08:47.340Z,11.90
2023-01-05T01:09:48.812Z,12.00
2023-01-05T01:10:50.308Z,11.90
2023-01-05T01:11:54.654Z,11.90
2023-01-05T01:12:56.102Z,11.90
2023-01-05T01:13:59.513Z,11.90
2023-01-05T01:15:00.938Z,11.80
2023-01-05T01:16:15.872Z,11.70
2023-01-05T01:17:18.136Z,11.70
2023-01-05T01:18:19.627Z,11.70
2023-01-05T01:19:24.131Z,11.60
2023-01-05T01:20:25.566Z,11.60
2023-01-05T01:21:27.499Z,11.50
2023-01-05T01:22:29.248Z,11.40
2023-01-05T01:23:31.308Z,11.40
2023-01-05T01:24:32.980Z,11.30
2023-01-05T01:25:34.677Z,11.30
2023-01-05T01:26:36.112Z,11.30
2023-01-05T01:27:37.647Z,11.20
2023-01-05T01:28:40.123Z,11.20
2023-01-05T01:29:42.188Z,11.10
2023-01-05T01:30:43.663Z,11.10
2023-01-05T01:31:49.579Z,11.10
2023-01-05T01:32:50.991Z,11.10
2023-01-05T01:33:52.623Z,11.10
2023-01-05T01:34:55.160Z,11.20
2023-01-05T01:35:57.301Z,11.10
2023-01-05T01:36:59.987Z,11.10
2023-01-05T01:38:06.436Z,11.10
2023-01-05T01:39:08.062Z,11.10
2023-01-05T01:40:13.332Z,11.10
2023-01-05T01:41:14.793Z,11.10
2023-01-05T01:42:17.079Z,11.10
2023-01-05T01:43:44.771Z,11.10
2023-01-05T01:44:47.660Z,11.00
2023-01-05T01:45:50.049Z,11.00
2023-01-05T01:46:51.590Z,11.00
2023-01-05T01:48:01.372Z,11.00
2023-01-05T01:49:08.768Z,11.00
2023-01-05T01:50:25.826Z,10.90
2023-01-05T01:51:38.647Z,10.90
2023-01-05T01:52:40.803Z,10.90
2023-01-05T01:53:49.640Z,10.90
2023-01-05T01:54:52.352Z,10.90
2023-01-05T01:55:55.642Z,10.90
2023-01-05T01:56:57.752Z,10.90
2023-01-05T01:58:01.309Z,10.90
2023-01-05T01:59:03.360Z,10.90
2023-01-05T02:00:09.182Z,10.90
2023-01-05T02:01:19.870Z,10.90
2023-01-05T02:02:23.015Z,10.90
2023-01-05T02:03:25.869Z,10.90
2023-01-05T02:04:30.821Z,10.90
2023-01-05T02:05:34.137Z,10.90
2023-01-05T02:06:36.499Z,10.90
2023-01-05T02:07:43.661Z,10.90
2023-01-05T02:08:47.413Z,11.00
2023-01-05T02:09:49.084Z,11.00
2023-01-05T02:11:02.435Z,11.00
2023-01-05T02:12:06.452Z,11.00
2023-01-05T02:13:35.708Z,11.10
2023-01-05T02:15:13.986Z,11.00
2023-01-05T02:16:33.998Z,11.10
2023-01-05T02:18:00.051Z,11.10
2023-01-05T02:19:36.896Z,11.00
2023-01-05T02:20:57.232Z,11.10
2023-01-05T02:22:35.032Z,11.00
2023-01-05T02:24:19.080Z,11.00
2023-01-05T02:25:20.516Z,11.10
2023-01-05T02:26:34.609Z,11.10
2023-01-05T02:27:44.742Z,11.20
2023-01-05T02:29:03.909Z,11.10
2023-01-05T02:30:36.255Z,11.10
2023-01-05T02:31:47.558Z,11.10
2023-01-05T02:32:55.359Z,11.10
2023-01-05T02:34:15.346Z,11.20
2023-01-05T02:35:34.481Z,11.20
2023-01-05T02:37:12.917Z,11.10
2023-01-05T02:38:30.100Z,11.20
2023-01-05T02:39:45.724Z,11.10
2023-01-05T02:40:56.759Z,11.20
2023-01-05T02:42:05.383Z,11.20
2023-01-05T02:43:12.769Z,11.20
2023-01-05T02:44:19.098Z,11.20
2023-01-05T02:45:24.896Z,11.20
2023-01-05T02:46:31.602Z,11.20
2023-01-05T02:47:33.110Z,11.20
2023-01-05T02:48:41.959Z,11.20
2023-01-05T02:49:44.033Z,11.20
2023-01-05T02:50:54.324Z,11.30
2023-01-05T02:52:00.162Z,11.20
2023-01-05T02:53:07.850Z,11.30
2023-01-05T02:54:28.150Z,11.30
2023-01-05T02:55:38.035Z,11.30
2023-01-05T02:56:49.979Z,11.30
2023-01-05T02:58:01.744Z,11.30
2023-01-05T02:59:16.095Z,11.40
2023-01-05T03:00:29.092Z,11.30
2023-01-05T03:01:36.090Z,11.30
2023-01-05T03:02:40.626Z,11.40
2023-01-05T03:03:53.610Z,11.40
2023-01-05T03:05:04.314Z,11.40
2023-01-05T03:06:47.088Z,11.40
2023-01-05T03:07:52.106Z,11.40
2023-01-05T03:08:57.983Z,11.40
2023-01-05T03:10:24.610Z,11.40
2023-01-05T03:12:09.223Z,11.40
2023-01-05T03:13:30.320Z,11.40
2023-01-05T03:14:37.607Z,11.40
2023-01-05T03:15:41.090Z,11.40
2023-01-05T03:16:45.710Z,11.30
2023-01-05T03:17:52.198Z,11.30
2023-01-05T03:19:15.838Z,11.40
2023-01-05T03:20:46.299Z,11.40
2023-01-05T03:22:08.675Z,11.40
2023-01-05T03:23:35.309Z,11.40
2023-01-05T03:24:56.554Z,11.40
2023-01-05T03:26:17.873Z,11.40
2023-01-05T03:27:38.039Z,11.40
2023-01-05T03:29:03.445Z,11.50
2023-01-05T03:30:28.848Z,11.40
2023-01-05T03:32:24.116Z,11.40
2023-01-05T03:33:59.226Z,11.40
2023-01-05T03:35:26.507Z,11.50
2023-01-05T03:36:30.109Z,11.30
2023-01-05T03:37:37.666Z,11.30
2023-01-05T03:38:44.578Z,11.40
2023-01-05T03:39:48.248Z,11.30
2023-01-05T03:40:53.704Z,11.40
2023-01-05T03:41:56.459Z,11.40
2023-01-05T03:42:58.273Z,11.40
2023-01-05T03:43:59.951Z,11.50
2023-01-05T03:45:08.307Z,11.50
2023-01-05T03:46:21.657Z,11.40
2023-01-05T03:47:24.124Z,11.40
2023-01-05T03:48:28.456Z,11.40
2023-01-05T03:49:30.515Z,11.40
2023-01-05T03:50:34.171Z,11.30
2023-01-05T03:51:41.489Z,11.30
2023-01-05T03:52:43.691Z,11.40
2023-01-05T03:53:45.593Z,11.30
2023-01-05T03:54:47.725Z,11.40
2023-01-05T03:55:49.184Z,11.40
2023-01-05T03:56:51.103Z,11.40
2023-01-05T03:57:52.546Z,11.40
2023-01-05T03:58:55.331Z,11.40
2023-01-05T03:59:57.468Z,11.50
2023-01-05T04:00:59.553Z,11.50
2023-01-05T04:02:02.006Z,11.40
2023-01-05T04:03:03.808Z,11.50
2023-01-05T04:04:05.721Z,11.40
2023-01-05T04:05:07.443Z,11.50
2023-01-05T04:06:09.464Z,11.50
2023-01-05T04:07:12.726Z,11.50
2023-01-05T04:08:15.269Z,11.50
2023-01-05T04:09:16.659Z,11.40
2023-01-05T04:10:19.655Z,11.40
2023-01-05T04:11:24.291Z,11.50
2023-01-05T04:12:38.904Z,11.50
2023-01-05T04:13:40.352Z,11.50
2023-01-05T04:14:42.026Z,11.50
2023-01-05T04:15:43.794Z,11.50
2023-01-05T04:16:45.944Z,11.40
2023-01-05T04:17:53.185Z,11.40
2023-01-05T04:18:54.621Z,11.40
2023-01-05T04:19:57.170Z,11.50
2023-01-05T04:20:58.595Z,11.40
2023-01-05T04:22:00.085Z,11.50
2023-01-05T04:23:03.691Z,11.50
2023-01-05T04:24:10.818Z,11.40
2023-01-05T04:25:14.715Z,11.40
2023-01-05T04:26:18.250Z,11.40
2023-01-05T04:27:23.578Z,11.40
2023-01-05T04:28:25.808Z,11.50
2023-01-05T04:29:30.508Z,11.50
2023-01-05T04:30:33.887Z,11.40
2023-01-05T04:31:36.114Z,11.40
2023-01-05T04:32:37.758Z,11.40
2023-01-05T04:33:40.298Z,11.40
2023-01-05T04:34:42.500Z,11.50
2023-01-05T04:35:43.939Z,11.50
2023-01-05T04:36:48.007Z,11.50
2023-01-05T04:37:52.122Z,11.50
2023-01-05T04:38:53.930Z,11.60
2023-01-05T04:39:55.771Z,11.50
2023-01-05T04:40:57.470Z,11.60
2023-01-05T04:42:00.438Z,11.50
2023-01-05T04:43:02.869Z,11.50
2023-01-05T04:44:04.582Z,11.50
2023-01-05T04:45:06.407Z,11.50
2023-01-05T04:46:07.963Z,11.50
2023-01-05T04:47:09.999Z,11.50
2023-01-05T04:48:15.152Z,11.50
2023-01-05T04:49:17.227Z,11.50
2023-01-05T04:50:21.563Z,11.60
2023-01-05T04:51:24.278Z,11.60
2023-01-05T04:52:25.784Z,11.50
2023-01-05T04:53:27.541Z,11.50
2023-01-05T04:54:29.067Z,11.50
2023-01-05T04:55:30.749Z,11.50
2023-01-05T04:56:32.941Z,11.50
2023-01-05T04:57:36.938Z,11.50
2023-01-05T04:58:38.353Z,11.50
2023-01-05T04:59:39.799Z,11.50
2023-01-05T05:00:41.501Z,11.50
2023-01-05T05:01:43.266Z,11.50
2023-01-05T05:02:47.250Z,11.50
2023-01-05T05:03:50.009Z,11.50
2023-01-05T05:04:54.039Z,11.50
2023-01-05T05:05:56.315Z,11.50
2023-01-05T05:06:58.245Z,11.50
2023-01-05T05:08:02.382Z,11.50
2023-01-05T05:09:04.727Z,11.50
2023-01-05T05:10:06.860Z,11.50
2023-01-05T05:11:08.623Z,11.50
2023-01-05T05:12:13.450Z,11.50
2023-01-05T05:13:15.212Z,11.60
2023-01-05T05:14:17.652Z,11.60
2023-01-05T05:15:19.283Z,11.50
2023-01-05T05:16:24.116Z,11.50
2023-01-05T05:17:27.333Z,11.60
2023-01-05T05:18:28.863Z,11.60
2023-01-05T05:19:30.721Z,11.60
2023-01-05T05:20:33.623Z,11.60
2023-01-05T05:21:35.180Z,11.60
2023-01-05T05:22:38.300Z,11.60
2023-01-05T05:23:40.179Z,11.60
2023-01-05T05:24:41.970Z,11.50
2023-01-05T05:25:43.922Z,11.50
2023-01-05T05:26:45.425Z,11.60
2023-01-05T05:27:46.841Z,11.60
2023-01-05T05:28:48.358Z,11.60
2023-01-05T05:29:49.825Z,11.60
2023-01-05T05:30:51.572Z,11.60
2023-01-05T05:31:53.399Z,11.60
2023-01-05T05:32:54.801Z,11.60
2023-01-05T05:33:56.345Z,11.60
2023-01-05T05:34:57.719Z,11.60
2023-01-05T05:35:59.176Z,11.60
2023-01-05T05:37:00.681Z,11.60
2023-01-05T05:38:02.129Z,11.60
2023-01-05T05:39:03.827Z,11.50
2023-01-05T05:40:06.094Z,11.60
2023-01-05T05:41:07.459Z,11.60
2023-01-05T05:42:08.918Z,11.60
2023-01-05T05:43:10.459Z,11.60
2023-01-05T05:44:11.850Z,11.60
2023-01-05T05:45:13.310Z,11.60
2023-01-05T05:46:14.783Z,11.60
2023-01-05T05:47:16.178Z,11.70
2023-01-05T05:48:18.594Z,11.60
2023-01-05T05:49:20.147Z,11.60
2023-01-05T05:50:21.666Z,11.60
2023-01-05T05:51:24.092Z,11.60
2023-01-05T05:52:25.532Z,11.70
2023-01-05T05:53:26.924Z,11.60
2023-01-05T05:54:28.322Z,11.60
2023-01-05T05:55:29.856Z,11.60
2023-01-05T05:56:31.702Z,11.60
2023-01-05T05:57:33.199Z,11.60
2023-01-05T05:58:34.606Z,11.60
2023-01-05T05:59:36.011Z,11.60
2023-01-05T06:00:37.556Z,11.60
2023-01-05T06:01:39.083Z,11.70
2023-01-05T06:02:42.935Z,11.70
2023-01-05T06:03:44.722Z,11.70
2023-01-05T06:04:46.397Z,11.70
2023-01-05T06:05:47.781Z,11.70
2023-01-05T06:06:49.175Z,11.70
2023-01-05T06:07:51.073Z,11.70
2023-01-05T06:08:52.524Z,11.60
2023-01-05T06:09:54.246Z,11.60
2023-01-05T06:10:56.294Z,11.60
2023-01-05T06:11:57.775Z,11.60
2023-01-05T06:12:59.850Z,11.60
2023-01-05T06:14:02.956Z,11.60
2023-01-05T06:15:04.881Z,11.60
2023-01-05T06:16:06.656Z,11.70
2023-01-05T06:17:08.361Z,11.70
2023-01-05T06:18:10.234Z,11.70
2023-01-05T06:19:11.983Z,11.60
2023-01-05T06:20:13.574Z,11.70
2023-01-05T06:21:15.038Z,11.70
2023-01-05T06:22:16.909Z,11.70
2023-01-05T06:23:18.315Z,11.70
2023-01-05T06:24:19.877Z,11.70
2023-01-05T06:25:21.409Z,11.70
2023-01-05T06:26:22.837Z,11.60
2023-01-05T06:27:24.257Z,11.60
2023-01-05T06:28:25.801Z,11.60
2023-01-05T06:29:27.198Z,11.60
2023-01-05T06:30:29.034Z,11.60
2023-01-05T06:31:30.542Z,11.60
2023-01-05T06:32:31.937Z,11.60
2023-01-05T06:33:33.403Z,11.60
2023-01-05T06:34:34.835Z,11.70
2023-01-05T06:35:36.494Z,11.70
2023-01-05T06:36:37.865Z,11.80
2023-01-05T06:37:39.608Z,11.80
2023-01-05T06:38:41.402Z,11.80
2023-01-05T06:39:42.895Z,11.70
2023-01-05T06:40:47.230Z,11.70
2023-01-05T06:41:48.590Z,11.70
2023-01-05T06:42:50.048Z,11.70
2023-01-05T06:43:51.582Z,11.70
2023-01-05T06:44:53.079Z,11.60
2023-01-05T06:45:54.896Z,11.60
2023-01-05T06:46:56.385Z,11.70
2023-01-05T06:47:59.083Z,11.60
2023-01-05T06:49:00.619Z,11.60
2023-01-05T06:50:01.991Z,11.60
2023-01-05T06:51:03.584Z,11.60
2023-01-05T06:52:06.201Z,11.70
2023-01-05T06:53:10.077Z,11.70
2023-01-05T06:54:11.613Z,11.70
2023-01-05T06:55:14.346Z,11.80
2023-01-05T06:56:15.770Z,11.80
2023-01-05T06:57:17.206Z,11.70
2023-01-05T06:58:19.913Z,11.70
2023-01-05T06:59:21.350Z,11.70
2023-01-05T07:00:22.891Z,11.70
2023-01-05T07:01:24.444Z,11.70
2023-01-05T07:02:26.217Z,11.70
2023-01-05T07:03:27.869Z,11.80
2023-01-05T07:04:29.542Z,11.80
2023-01-05T07:05:31.697Z,11.70
2023-01-05T07:06:34.995Z,11.80
2023-01-05T07:07:37.036Z,11.80
2023-01-05T07:08:38.447Z,11.80
2023-01-05T07:09:40.749Z,11.80
2023-01-05T07:10:42.291Z,11.80
2023-01-05T07:11:43.923Z,11.80
2023-01-05T07:12:45.373Z,11.80
2023-01-05T07:13:50.668Z,11.80
2023-01-05T07:14:57.253Z,11.80
2023-01-05T07:15:59.818Z,11.80
2023-01-05T07:17:01.564Z,11.80
2023-01-05T07:18:03.009Z,11.80
2023-01-05T07:19:04.414Z,11.80
2023-01-05T07:20:06.359Z,11.80
2023-01-05T07:21:07.778Z,11.90
2023-01-05T07:22:09.344Z,11.90
2023-01-05T07:23:11.115Z,11.90
2023-01-05T07:24:12.631Z,11.90
2023-01-05T07:25:14.020Z,11.90
2023-01-05T07:26:15.471Z,11.80
2023-01-05T07:27:16.916Z,11.80
2023-01-05T07:28:18.350Z,11.80
2023-01-05T07:29:19.946Z,11.90
2023-01-05T07:30:21.348Z,11.90
2023-01-05T07:31:23.046Z,11.90
2023-01-05T07:32:24.792Z,11.90
2023-01-05T07:33:26.325Z,11.90
2023-01-05T07:34:28.007Z,11.90
2023-01-05T07:35:29.443Z,12.00
2023-01-05T07:36:30.873Z,11.90
2023-01-05T07:37:32.264Z,11.90
2023-01-05T07:38:33.791Z,11.90
2023-01-05T07:39:35.486Z,11.90
2023-01-05T07:40:37.039Z,11.90
2023-01-05T07:41:38.578Z,12.00
2023-01-05T07:42:40.449Z,12.00
2023-01-05T07:43:44.017Z,12.00
2023-01-05T07:44:45.627Z,12.00
2023-01-05T07:45:48.325Z,12.00
2023-01-05T07:46:49.809Z,11.90
2023-01-05T07:47:51.452Z,12.00
2023-01-05T07:48:53.330Z,11.90
2023-01-05T07:49:54.879Z,12.00
2023-01-05T07:51:04.414Z,12.00
2023-01-05T07:52:05.827Z,12.00
2023-01-05T07:53:07.367Z,12.00
2023-01-05T07:54:09.336Z,12.00
2023-01-05T07:55:10.922Z,11.90
2023-01-05T07:56:13.478Z,12.00
2023-01-05T07:57:14.953Z,12.00
2023-01-05T07:58:16.471Z,12.00
2023-01-05T07:59:17.943Z,12.00
2023-01-05T08:00:19.772Z,12.00
2023-01-05T08:01:21.597Z,11.90
2023-01-05T08:02:24.065Z,12.00
2023-01-05T08:03:25.629Z,12.00
2023-01-05T08:04:27.707Z,12.00
2023-01-05T08:05:33.959Z,12.00
2023-01-05T08:06:35.335Z,12.10
2023-01-05T08:07:37.034Z,12.10
2023-01-05T08:08:38.790Z,12.00
2023-01-05T08:09:59.515Z,12.10
2023-01-05T08:11:03.651Z,12.10
2023-01-05T08:12:05.282Z,12.10
2023-01-05T08:13:27.315Z,12.10
2023-01-05T08:14:28.744Z,12.10
2023-01-05T08:15:30.235Z,12.10
2023-01-05T08:16:33.346Z,12.20
2023-01-05T08:17:34.871Z,12.20
2023-01-05T08:18:36.365Z,12.20
2023-01-05T08:19:37.855Z,12.20
2023-01-05T08:20:39.331Z,12.20
2023-01-05T08:21:41.011Z,12.20
2023-01-05T08:22:42.381Z,12.10
2023-01-05T08:23:45.839Z,12.20
2023-01-05T08:24:47.548Z,12.10
2023-01-05T08:25:49.045Z,12.10
2023-01-05T08:26:51.229Z,12.10
2023-01-05T08:27:52.732Z,12.20
2023-01-05T08:28:54.139Z,12.20
2023-01-05T08:29:55.602Z,12.20
2023-01-05T08:31:06.317Z,12.20
2023-01-05T08:32:08.695Z,12.30
2023-01-05T08:33:10.360Z,12.20
2023-01-05T08:34:11.862Z,12.10
2023-01-05T08:35:13.261Z,12.20
2023-01-05T08:36:17.207Z,12.30
2023-01-05T08:37:19.256Z,12.20
2023-01-05T08:38:23.824Z,12.30
2023-01-05T08:39:25.343Z,12.30
2023-01-05T08:40:27.346Z,12.30
2023-01-05T08:41:32.027Z,12.40
2023-01-05T08:42:33.962Z,12.30
2023-01-05T08:43:35.708Z,12.40
2023-01-05T08:44:37.304Z,12.30
2023-01-05T08:45:38.810Z,12.30
2023-01-05T08:46:40.337Z,12.40
2023-01-05T08:47:42.375Z,12.40
2023-01-05T08:48:43.796Z,12.40
2023-01-05T08:49:45.244Z,12.30
2023-01-05T08:50:46.861Z,12.30
2023-01-05T08:51:48.516Z,12.40
2023-01-05T08:52:50.163Z,12.40
2023-01-05T08:53:51.927Z,12.40
2023-01-05T08:54:53.360Z,12.40
2023-01-05T08:55:55.043Z,12.30
2023-01-05T08:56:56.493Z,12.40
2023-01-05T08:57:57.974Z,12.40
2023-01-05T08:58:59.556Z,12.40
2023-01-05T09:00:01.141Z,12.40
2023-01-05T09:01:10.523Z,12.30
2023-01-05T09:02:20.206Z,12.40
2023-01-05T09:03:25.021Z,12.30
2023-01-05T09:04:27.913Z,12.40
2023-01-05T09:05:29.369Z,12.40
2023-01-05T09:06:30.790Z,12.30
2023-01-05T09:07:32.279Z,12.30
2023-01-05T09:08:34.432Z,12.20
2023-01-05T09:09:36.173Z,12.20
2023-01-05T09:10:37.674Z,12.10
2023-01-05T09:11:40.282Z,12.10
2023-01-05T09:12:41.797Z,12.10
2023-01-05T09:13:47.812Z,12.00
2023-01-05T09:14:49.477Z,12.00
2023-01-05T09:15:50.853Z,12.10
2023-01-05T09:17:08.685Z,12.10
2023-01-05T09:18:10.900Z,12.10
2023-01-05T09:19:12.898Z,12.20
2023-01-05T09:20:14.649Z,12.20
2023-01-05T09:21:16.376Z,12.20
2023-01-05T09:22:17.805Z,12.30
2023-01-05T09:23:19.627Z,12.30
2023-01-05T09:24:21.129Z,12.40
2023-01-05T09:25:23.135Z,12.40
2023-01-05T09:26:24.787Z,12.40
2023-01-05T09:27:26.151Z,12.50
2023-01-05T09:28:27.587Z,12.50
2023-01-05T09:29:29.294Z,12.50
2023-01-05T09:30:34.676Z,12.60
2023-01-05T09:31:43.287Z,12.70
2023-01-05T09:32:44.824Z,12.70
2023-01-05T09:33:46.512Z,12.80
2023-01-05T09:34:47.983Z,12.80
2023-01-05T09:35:56.354Z,12.90
2023-01-05T09:36:58.104Z,12.90
2023-01-05T09:37:59.495Z,12.80
2023-01-05T09:39:00.925Z,12.90
2023-01-05T09:40:02.351Z,12.90
2023-01-05T09:41:06.243Z,12.90
2023-01-05T09:42:13.924Z,13.00
2023-01-05T09:43:24.576Z,13.00
2023-01-05T09:44:37.739Z,13.00
2023-01-05T09:45:39.379Z,13.00
2023-01-05T09:46:46.196Z,13.00
2023-01-05T09:47:48.194Z,13.00
2023-01-05T09:48:53.704Z,13.10
2023-01-05T09:49:58.545Z,13.20
2023-01-05T09:50:59.952Z,13.20
2023-01-05T09:52:09.168Z,13.20
2023-01-05T09:53:13.614Z,13.30
2023-01-05T09:54:19.527Z,13.40
2023-01-05T09:55:23.425Z,13.40
2023-01-05T09:57:08.512Z,13.50
2023-01-05T09:58:10.501Z,13.50
2023-01-05T09:59:20.878Z,13.60
2023-01-05T10:00:24.138Z,13.60
2023-01-05T10:01:25.667Z,13.60
2023-01-05T10:02:32.369Z,13.70
2023-01-05T10:04:03.435Z,13.80
2023-01-05T10:05:04.916Z,13.80
2023-01-05T10:06:12.658Z,13.90
2023-01-05T10:07:42.022Z,14.00
2023-01-05T10:08:48.189Z,14.00
2023-01-05T10:09:50.771Z,14.10
2023-01-05T10:11:13.038Z,14.10
2023-01-05T10:13:00.839Z,14.10
2023-01-05T10:14:09.043Z,14.10
2023-01-05T10:15:20.718Z,14.10
2023-01-05T10:16:29.102Z,14.10
2023-01-05T10:17:41.799Z,14.10
2023-01-05T10:18:45.826Z,14.10
2023-01-05T10:19:48.718Z,14.10
2023-01-05T10:20:59.268Z,14.10
2023-01-05T10:22:38.472Z,14.10
2023-01-05T10:24:17.938Z,14.20
2023-01-05T10:25:29.702Z,14.20
2023-01-05T10:27:13.982Z,14.20
2023-01-05T10:28:23.544Z,14.20
2023-01-05T10:29:53.061Z,14.20
2023-01-05T10:30:59.268Z,14.10
2023-01-05T10:32:21.668Z,14.10
2023-01-05T10:33:53.100Z,14.10
2023-01-05T10:35:02.966Z,14.10
2023-01-05T10:36:48.923Z,14.20
2023-01-05T10:37:49.100Z,14.20
2023-01-05T10:39:32.531Z,14.10
2023-01-05T10:40:58.478Z,14.10
2023-01-05T10:42:13.563Z,14.10
2023-01-05T10:43:47.548Z,14.10
2023-01-05T10:45:03.540Z,14.00
2023-01-05T10:47:37.722Z,13.90
2023-01-05T10:48:40.100Z,13.90
2023-01-05T10:49:45.415Z,14.10
2023-01-05T10:50:48.144Z,14.10
2023-01-05T10:51:56.283Z,14.10
2023-01-05T10:52:59.271Z,14.10
2023-01-05T10:54:03.260Z,14.10
2023-01-05T10:55:15.960Z,14.10
2023-01-05T10:56:25.482Z,14.10
2023-01-05T10:57:34.528Z,14.10
2023-01-05T10:58:39.000Z,14.20
2023-01-05T11:00:09.637Z,14.10
2023-01-05T11:01:30.649Z,13.90
2023-01-05T11:02:35.993Z,14.00
2023-01-05T11:05:27.823Z,14.00
2023-01-05T11:06:32.404Z,14.10
2023-01-05T11:07:48.296Z,14.10
2023-01-05T11:08:50.494Z,14.10
2023-01-05T11:09:52.140Z,14.10
2023-01-05T11:10:58.069Z,14.10
2023-01-05T11:12:02.406Z,14.20
2023-01-05T11:13:22.555Z,14.20
2023-01-05T11:14:25.051Z,14.20
2023-01-05T11:15:26.519Z,14.10
2023-01-05T11:16:33.910Z,14.10
2023-01-05T11:17:38.299Z,14.10
2023-01-05T11:18:55.038Z,14.10
2023-01-05T11:19:57.955Z,14.10
2023-01-05T11:21:13.471Z,14.10
2023-01-05T11:22:36.965Z,14.10
2023-01-05T11:23:47.802Z,14.10
2023-01-05T11:24:51.023Z,14.10
2023-01-05T11:25:52.513Z,14.10
2023-01-05T11:27:22.264Z,14.00
2023-01-05T11:28:23.651Z,14.10
2023-01-05T11:29:25.711Z,14.00
2023-01-05T11:30:27.285Z,13.90
2023-01-05T11:31:48.004Z,14.00
2023-01-05T11:32:49.549Z,13.90
2023-01-05T11:34:00.084Z,14.00
2023-01-05T11:35:01.651Z,14.00
2023-01-05T11:36:04.943Z,14.10
2023-01-05T11:37:16.572Z,14.10
2023-01-05T11:38:23.279Z,14.10
2023-01-05T11:39:30.396Z,14.10
2023-01-05T11:40:35.791Z,14.10
2023-01-05T11:41:37.750Z,14.00
2023-01-05T11:42:43.556Z,14.00
2023-01-05T11:43:48.204Z,14.10
2023-01-05T11:44:53.191Z,14.00
2023-01-05T11:45:58.603Z,14.10
2023-01-05T11:47:00.159Z,14.10
2023-01-05T11:48:07.038Z,14.10
2023-01-05T11:49:09.056Z,14.10
2023-01-05T11:50:13.205Z,14.20
2023-01-05T11:51:37.424Z,14.20
2023-01-05T11:52:44.752Z,14.20
2023-01-05T11:53:47.818Z,14.10
2023-01-05T11:54:50.094Z,14.20
2023-01-05T11:56:07.892Z,14.20
2023-01-05T11:57:22.339Z,14.20
2023-01-05T11:58:26.695Z,14.10
2023-01-05T11:59:29.973Z,14.10
2023-01-05T12:00:37.937Z,14.20
2023-01-05T12:01:59.940Z,14.20
2023-01-05T12:03:39.492Z,14.10
2023-01-05T12:05:14.801Z,14.20
2023-01-05T12:06:44.488Z,14.20
2023-01-05T12:07:59.145Z,14.20
2023-01-05T12:09:22.051Z,14.20
2023-01-05T12:10:49.124Z,14.20
2023-01-05T12:12:08.663Z,14.30
2023-01-05T12:13:23.000Z,14.20
2023-01-05T12:14:40.759Z,14.30
2023-01-05T12:15:49.907Z,14.20
2023-01-05T12:16:56.517Z,14.10
2023-01-05T12:18:19.997Z,14.10
2023-01-05T12:19:58.728Z,14.10
2023-01-05T12:21:22.775Z,14.00
2023-01-05T12:22:45.216Z,14.00
2023-01-05T12:23:58.955Z,14.00
2023-01-05T12:25:06.703Z,13.90
2023-01-05T12:26:35.425Z,14.00
2023-01-05T12:28:05.353Z,13.90
2023-01-05T12:35:06.346Z,13.80
2023-01-05T12:36:26.144Z,13.80
2023-01-05T12:37:36.113Z,13.80
2023-01-05T12:39:06.382Z,13.80
2023-01-05T12:40:26.360Z,13.90
2023-01-05T12:41:54.785Z,13.90
2023-01-05T12:43:03.010Z,14.00
2023-01-05T12:44:22.719Z,14.00
2023-01-05T12:46:01.255Z,14.00
2023-01-05T12:47:08.964Z,14.10
2023-01-05T12:48:24.954Z,14.10
2023-01-05T12:49:33.886Z,14.20
2023-01-05T12:51:05.419Z,14.20
2023-01-05T12:52:07.151Z,14.20
2023-01-05T12:53:33.701Z,14.30
2023-01-05T12:55:13.220Z,14.40
2023-01-05T12:56:20.295Z,14.30
2023-01-05T12:57:34.967Z,14.30
2023-01-05T12:58:43.070Z,14.30
2023-01-05T13:00:08.094Z,14.30
2023-01-05T13:01:21.042Z,14.30
2023-01-05T13:02:34.887Z,14.30
2023-01-05T13:03:48.644Z,14.20
2023-01-05T13:04:56.978Z,14.30
2023-01-05T13:06:07.012Z,14.30
2023-01-05T13:07:17.652Z,14.30
2023-01-05T13:08:31.429Z,14.20
2023-01-05T13:09:35.494Z,14.20
2023-01-05T13:10:47.849Z,14.20
2023-01-05T13:11:55.547Z,14.30
2023-01-05T13:13:13.278Z,14.30
2023-01-05T13:14:22.050Z,14.40
2023-01-05T13:16:16.303Z,14.40
2023-01-05T13:17:26.568Z,14.40
2023-01-05T13:18:29.090Z,14.30
2023-01-05T13:19:53.982Z,14.30
2023-01-05T13:21:09.499Z,14.30
2023-01-05T13:22:23.797Z,14.20
2023-01-05T13:23:32.290Z,14.20
2023-01-05T13:24:46.345Z,14.20
2023-01-05T13:26:07.670Z,14.20
2023-01-05T13:27:10.954Z,14.10
2023-01-05T13:28:24.584Z,14.00
2023-01-05T13:29:39.012Z,14.10
2023-01-05T13:30:53.323Z,14.10
2023-01-05T13:32:32.704Z,14.10
2023-01-05T13:33:45.128Z,14.10
2023-01-05T13:35:16.364Z,14.20
2023-01-05T13:36:38.933Z,14.20
2023-01-05T13:38:10.295Z,14.20
2023-01-05T13:39:20.319Z,14.20
2023-01-05T13:40:24.646Z,14.20
2023-01-05T13:41:46.108Z,14.20
2023-01-05T13:43:12.024Z,14.10
2023-01-05T13:44:34.769Z,14.10
2023-01-05T13:46:33.140Z,14.10
2023-01-05T13:49:43.051Z,14.00
2023-01-05T13:51:22.614Z,14.00
2023-01-05T13:52:42.867Z,13.90
2023-01-05T13:53:46.756Z,14.00
2023-01-05T13:55:01.432Z,14.00
2023-01-05T13:56:18.877Z,14.00
2023-01-05T13:57:23.963Z,13.90
2023-01-05T13:58:44.613Z,13.90
2023-01-05T14:00:00.701Z,13.90
2023-01-05T14:01:33.873Z,13.90
2023-01-05T14:02:39.502Z,13.90
2023-01-05T14:04:54.379Z,13.90
2023-01-05T14:05:59.073Z,13.80
2023-01-05T14:07:15.816Z,13.80
2023-01-05T14:08:32.292Z,13.80
2023-01-05T14:09:46.583Z,13.80
2023-01-05T14:11:07.010Z,13.90
2023-01-05T14:12:08.628Z,13.90
2023-01-05T14:13:42.057Z,13.90
2023-01-05T14:15:09.288Z,13.90
2023-01-05T14:16:35.889Z,13.90
2023-01-05T14:17:55.534Z,13.90
2023-01-05T14:19:12.713Z,13.90
2023-01-05T14:20:49.477Z,13.90
2023-01-05T14:21:51.393Z,13.90
2023-01-05T14:22:52.969Z,13.80
2023-01-05T14:23:59.129Z,13.80
2023-01-05T14:25:40.968Z,13.80
2023-01-05T14:27:07.678Z,13.90
2023-01-05T14:28:28.201Z,13.90
2023-01-05T14:29:48.543Z,13.90
2023-01-05T14:30:53.086Z,13.90
2023-01-05T14:31:55.501Z,13.90
2023-01-05T14:33:06.213Z,13.80
2023-01-05T14:34:14.337Z,13.90
2023-01-05T14:35:37.116Z,13.90
2023-01-05T14:36:59.480Z,13.80
2023-01-05T14:38:23.009Z,13.80
2023-01-05T14:39:42.696Z,13.70
2023-01-05T14:40:48.832Z,13.80
2023-01-05T14:42:04.539Z,13.80
2023-01-05T14:43:21.762Z,13.80
2023-01-05T14:44:40.868Z,13.80
2023-01-05T14:45:56.125Z,13.80